createdAt,value
2022-09-15T00:00:00.231Z,2.47
2022-09-15T00:02:26.597Z,2.03
2022-09-15T00:04:53.348Z,3.45
2022-09-15T00:07:20.559Z,2.15
2022-09-15T00:09:47.246Z,3.15
2022-09-15T00:12:13.675Z,2.67
2022-09-15T00:14:40.030Z,3.05
2022-09-15T00:17:06.984Z,6.38
2022-09-15T00:19:33.324Z,2.45
2022-09-15T00:21:59.623Z,2.28
2022-09-15T00:24:26.398Z,1.92
2022-09-15T00:26:52.740Z,1.77
2022-09-15T00:29:19.443Z,1.88
2022-09-15T00:31:45.791Z,2.35
2022-09-15T00:34:13.211Z,1.42
2022-09-15T00:36:40.775Z,1.95
2022-09-15T00:39:07.186Z,1.65
2022-09-15T00:41:33.542Z,2.97
2022-09-15T00:44:06.597Z,2.47
2022-09-15T00:46:41.001Z,2.42
2022-09-15T00:49:11.009Z,1.95
2022-09-15T00:52:07.166Z,1.65
2022-09-15T00:54:46.688Z,1.30
2022-09-15T00:57:19.719Z,3.40
2022-09-15T00:59:48.327Z,2.35
2022-09-15T01:02:28.080Z,4.00
2022-09-15T01:04:58.582Z,6.53
2022-09-15T01:07:46.437Z,3.33
2022-09-15T01:10:21.891Z,3.17
2022-09-15T01:12:48.635Z,2.10
2022-09-15T01:15:16.167Z,2.78
2022-09-15T01:17:56.240Z,3.22
2022-09-15T01:20:41.207Z,2.47
2022-09-15T01:23:29.839Z,2.20
2022-09-15T01:26:10.909Z,1.58
2022-09-15T01:29:02.503Z,2.92
2022-09-15T01:32:02.181Z,1.58
2022-09-15T01:34:39.167Z,2.00
2022-09-15T01:37:15.167Z,3.13
2022-09-15T01:39:46.178Z,1.92
2022-09-15T01:42:15.415Z,1.98
2022-09-15T01:44:56.979Z,2.00
2022-09-15T01:47:27.298Z,2.60
2022-09-15T01:50:03.127Z,2.22
2022-09-15T01:52:31.532Z,1.85
2022-09-15T01:55:05.116Z,1.25
2022-09-15T01:57:33.162Z,2.70
2022-09-15T02:00:00.492Z,2.88
2022-09-15T02:02:34.681Z,2.10
2022-09-15T02:05:20.109Z,1.77
2022-09-15T02:07:52.351Z,1.92
2022-09-15T02:10:58.687Z,1.42
2022-09-15T02:13:33.063Z,1.83
2022-09-15T02:16:00.405Z,1.23
2022-09-15T02:18:45.553Z,2.35
2022-09-15T02:21:23.262Z,1.92
2022-09-15T02:23:55.296Z,3.47
2022-09-15T02:26:26.900Z,1.63
2022-09-15T02:28:57.552Z,1.70
2022-09-15T02:31:25.835Z,1.83
2022-09-15T02:33:59.930Z,6.05
2022-09-15T02:36:29.098Z,2.70
2022-09-15T02:39:00.667Z,1.88
2022-09-15T02:41:27.224Z,1.65
2022-09-15T02:43:54.082Z,1.52
2022-09-15T02:46:22.974Z,2.60
2022-09-15T02:48:50.143Z,1.20
2022-09-15T02:51:18.353Z,2.20
2022-09-15T02:53:46.926Z,1.60
2022-09-15T02:56:13.709Z,1.13
2022-09-15T02:58:40.042Z,1.65
2022-09-15T03:01:08.567Z,1.33
2022-09-15T03:03:35.023Z,2.65
2022-09-15T03:06:17.108Z,1.88
2022-09-15T03:08:45.134Z,3.30
2022-09-15T03:11:12.075Z,2.08
2022-09-15T03:13:39.143Z,0.90
2022-09-15T03:16:13.927Z,1.38
2022-09-15T03:18:42.035Z,2.25
2022-09-15T03:21:12.190Z,1.38
2022-09-15T03:23:39.670Z,1.20
2022-09-15T03:26:08.139Z,1.10
2022-09-15T03:28:35.282Z,0.95
2022-09-15T03:31:02.451Z,1.60
2022-09-15T03:33:30.303Z,1.52
2022-09-15T03:35:57.069Z,2.40
2022-09-15T03:38:23.495Z,3.58
2022-09-15T03:40:58.516Z,0.90
2022-09-15T03:43:25.560Z,1.10
2022-09-15T03:45:51.938Z,1.30
2022-09-15T03:48:19.171Z,0.40
2022-09-15T03:50:45.928Z,1.35
2022-09-15T03:53:12.632Z,1.23
2022-09-15T03:55:39.292Z,1.67
2022-09-15T03:58:05.603Z,0.98
2022-09-15T04:00:32.177Z,1.77
2022-09-15T04:02:58.883Z,1.23
2022-09-15T04:05:25.359Z,0.93
2022-09-15T04:07:51.665Z,1.67
2022-09-15T04:10:18.933Z,1.33
2022-09-15T04:12:46.072Z,1.35
2022-09-15T04:15:12.378Z,2.20
2022-09-15T04:17:39.431Z,4.57
2022-09-15T04:20:06.239Z,1.83
2022-09-15T04:22:32.566Z,2.17
2022-09-15T04:24:59.225Z,4.65
2022-09-15T04:27:25.644Z,1.25
2022-09-15T04:29:52.479Z,1.42
2022-09-15T04:32:20.949Z,1.13
2022-09-15T04:34:47.377Z,2.90
2022-09-15T04:37:13.743Z,1.33
2022-09-15T04:39:40.894Z,1.13
2022-09-15T04:42:07.781Z,1.90
2022-09-15T04:44:34.120Z,1.38
2022-09-15T04:47:01.045Z,2.60
2022-09-15T04:49:28.800Z,1.40
2022-09-15T04:51:55.226Z,1.17
2022-09-15T04:54:21.920Z,4.85
2022-09-15T04:56:48.827Z,1.80
2022-09-15T04:59:17.507Z,1.63
2022-09-15T05:01:45.763Z,1.00
2022-09-15T05:04:12.473Z,1.90
2022-09-15T05:06:39.067Z,2.45
2022-09-15T05:09:10.467Z,2.58
2022-09-15T05:11:37.781Z,1.60
2022-09-15T05:14:04.118Z,2.55
2022-09-15T05:16:31.898Z,7.00
2022-09-15T05:19:00.594Z,1.92
2022-09-15T05:21:27.643Z,2.28
2022-09-15T05:23:54.568Z,3.33
2022-09-15T05:26:23.960Z,1.95
2022-09-15T05:28:50.295Z,2.15
2022-09-15T05:31:23.088Z,2.78
2022-09-15T05:33:50.498Z,1.63
2022-09-15T05:36:18.500Z,4.15
2022-09-15T05:38:45.397Z,1.50
2022-09-15T05:41:14.054Z,2.17
2022-09-15T05:43:40.369Z,2.25
2022-09-15T05:46:07.878Z,1.30
2022-09-15T05:48:34.767Z,3.50
2022-09-15T05:51:01.656Z,2.67
2022-09-15T05:53:28.958Z,1.95
2022-09-15T05:56:00.258Z,1.63
2022-09-15T05:58:27.371Z,2.45
2022-09-15T06:00:54.475Z,1.83
2022-09-15T06:03:24.463Z,1.73
2022-09-15T06:06:00.107Z,2.13
2022-09-15T06:08:34.163Z,1.80
2022-09-15T06:11:02.791Z,1.98
2022-09-15T06:13:29.293Z,3.17
2022-09-15T06:16:01.484Z,1.90
2022-09-15T06:18:28.076Z,1.90
2022-09-15T06:20:54.382Z,2.97
2022-09-15T06:23:21.283Z,1.20
2022-09-15T06:25:48.059Z,2.05
2022-09-15T06:28:14.359Z,1.15
2022-09-15T06:30:41.149Z,1.00
2022-09-15T06:33:07.459Z,3.72
2022-09-15T06:35:33.786Z,1.98
2022-09-15T06:38:00.496Z,1.52
2022-09-15T06:40:26.928Z,1.00
2022-09-15T06:42:57.033Z,2.63
2022-09-15T06:45:23.780Z,1.35
2022-09-15T06:48:13.442Z,1.05
2022-09-15T06:50:39.084Z,1.60
2022-09-15T06:53:05.471Z,3.00
2022-09-15T06:55:31.788Z,2.63
2022-09-15T06:57:58.464Z,1.77
2022-09-15T07:00:25.599Z,2.35
2022-09-15T07:02:51.975Z,1.42
2022-09-15T07:05:18.947Z,2.13
2022-09-15T07:07:45.290Z,1.33
2022-09-15T07:10:11.692Z,1.42
2022-09-15T07:12:38.416Z,1.55
2022-09-15T07:15:05.168Z,1.10
2022-09-15T07:17:31.468Z,1.48
2022-09-15T07:19:58.044Z,1.55
2022-09-15T07:22:24.793Z,3.42
2022-09-15T07:24:51.101Z,2.30
2022-09-15T07:27:18.070Z,1.00
2022-09-15T07:29:44.704Z,3.00
2022-09-15T07:32:11.010Z,1.52
2022-09-15T07:34:37.328Z,2.45
2022-09-15T07:37:04.215Z,1.85
2022-09-15T07:39:32.511Z,1.73
2022-09-15T07:41:58.858Z,1.77
2022-09-15T07:44:25.279Z,1.13
2022-09-15T07:46:51.989Z,3.65
2022-09-15T07:49:18.289Z,1.13
2022-09-15T07:51:44.595Z,1.50
2022-09-15T07:54:13.275Z,2.35
2022-09-15T07:56:39.610Z,1.15
2022-09-15T07:59:06.010Z,1.42
2022-09-15T08:01:33.118Z,2.30
2022-09-15T08:03:59.531Z,1.30
2022-09-15T08:06:26.763Z,1.20
2022-09-15T08:08:59.227Z,1.33
2022-09-15T08:11:26.991Z,1.20
2022-09-15T08:13:53.747Z,1.73
2022-09-15T08:16:22.951Z,1.30
2022-09-15T08:18:49.960Z,1.15
2022-09-15T08:21:20.566Z,1.48
2022-09-15T08:23:51.958Z,1.00
2022-09-15T08:26:19.394Z,4.13
2022-09-15T08:28:45.913Z,1.00
2022-09-15T08:31:14.228Z,1.70
2022-09-15T08:33:45.466Z,2.53
2022-09-15T08:36:13.140Z,1.50
2022-09-15T08:38:40.739Z,2.25
2022-09-15T08:41:37.884Z,2.05
2022-09-15T08:44:22.839Z,0.95
2022-09-15T08:46:56.519Z,1.50
2022-09-15T08:49:51.214Z,1.15
2022-09-15T08:52:35.059Z,1.63
2022-09-15T08:55:10.250Z,2.20
2022-09-15T08:57:36.763Z,1.58
2022-09-15T09:00:03.801Z,1.77
2022-09-15T09:02:48.597Z,1.25
2022-09-15T09:05:34.282Z,1.42
2022-09-15T09:08:11.255Z,2.63
2022-09-15T09:11:11.030Z,2.00
2022-09-15T09:13:58.010Z,2.15
2022-09-15T09:16:47.243Z,1.63
2022-09-15T09:19:17.089Z,1.50
2022-09-15T09:22:09.504Z,1.45
2022-09-15T09:24:43.040Z,1.08
2022-09-15T09:27:19.852Z,1.23
2022-09-15T09:29:52.274Z,1.38
2022-09-15T09:32:27.342Z,1.70
2022-09-15T09:35:05.731Z,1.75
2022-09-15T09:37:33.278Z,1.50
2022-09-15T09:40:00.421Z,3.30
2022-09-15T09:42:34.741Z,2.13
2022-09-15T09:47:29.648Z,1.23
2022-09-15T09:49:56.130Z,0.88
2022-09-15T09:52:39.297Z,2.22
2022-09-15T09:55:31.676Z,0.52
2022-09-15T09:58:14.431Z,3.35
2022-09-15T10:00:41.963Z,0.55
2022-09-15T10:03:23.021Z,1.05
2022-09-15T10:06:08.054Z,0.75
2022-09-15T10:08:36.329Z,1.58
2022-09-15T10:11:08.578Z,0.47
2022-09-15T10:13:49.598Z,1.52
2022-09-15T10:16:19.239Z,1.48
2022-09-15T10:18:48.990Z,2.42
2022-09-15T10:21:23.924Z,1.80
2022-09-15T10:23:50.239Z,0.60
2022-09-15T10:26:16.547Z,0.93
2022-09-15T10:28:44.369Z,0.45
2022-09-15T10:31:16.187Z,0.73
2022-09-15T10:33:47.774Z,1.10
2022-09-15T10:36:17.567Z,0.70
2022-09-15T10:38:49.687Z,2.00
2022-09-15T10:41:25.739Z,0.50
2022-09-15T10:44:33.982Z,0.57
2022-09-15T10:47:12.915Z,0.60
2022-09-15T10:49:59.960Z,0.80
2022-09-15T10:52:41.220Z,1.38
2022-09-15T10:55:52.221Z,0.68
2022-09-15T10:58:25.360Z,0.90
2022-09-15T11:01:11.208Z,0.60
2022-09-15T11:03:49.273Z,0.88
2022-09-15T11:06:25.022Z,1.08
2022-09-15T11:09:15.240Z,1.15
2022-09-15T11:12:04.664Z,1.00
2022-09-15T11:15:11.797Z,1.30
2022-09-15T11:17:54.147Z,0.80
2022-09-15T11:20:33.333Z,1.67
2022-09-15T11:23:22.571Z,1.02
2022-09-15T11:25:55.244Z,1.88
2022-09-15T11:28:41.646Z,1.23
2022-09-15T11:31:16.775Z,1.40
2022-09-15T11:33:52.400Z,2.65
2022-09-15T11:36:30.327Z,1.08
2022-09-15T11:39:27.952Z,1.77
2022-09-15T11:42:17.542Z,2.92
2022-09-15T11:44:46.896Z,1.95
2022-09-15T11:47:31.170Z,1.35
2022-09-15T11:50:17.969Z,1.08
2022-09-15T11:52:57.668Z,2.30
2022-09-15T11:55:29.975Z,2.13
2022-09-15T11:58:35.092Z,1.05
2022-09-15T12:04:00.035Z,1.00
2022-09-15T12:06:35.997Z,1.33
2022-09-15T12:09:06.006Z,1.75
2022-09-15T12:11:40.464Z,1.85
2022-09-15T12:14:10.898Z,2.08
2022-09-15T12:16:37.528Z,1.73
2022-09-15T12:19:33.014Z,1.13
2022-09-15T12:22:29.588Z,3.78
2022-09-15T12:25:15.397Z,2.65
2022-09-15T12:27:41.738Z,1.80
2022-09-15T12:30:38.286Z,1.90
2022-09-15T12:33:42.658Z,1.00
2022-09-15T12:39:46.094Z,0.52
2022-09-15T12:42:20.666Z,0.38
2022-09-15T12:44:52.683Z,1.27
2022-09-15T12:47:39.133Z,0.70
2022-09-15T12:50:14.891Z,1.05
2022-09-15T12:52:45.377Z,0.57
2022-09-15T12:55:27.966Z,0.45
2022-09-15T12:58:18.208Z,0.57
2022-09-15T13:01:07.211Z,1.05
2022-09-15T13:03:38.179Z,0.30
2022-09-15T13:06:10.905Z,0.73
2022-09-15T13:08:37.252Z,0.20
2022-09-15T13:11:08.512Z,0.17
2022-09-15T13:13:43.906Z,1.85
2022-09-15T13:16:19.438Z,0.63
2022-09-15T13:18:47.441Z,0.20
2022-09-15T13:21:19.216Z,0.38
2022-09-15T13:23:48.536Z,0.63
2022-09-15T13:26:22.455Z,0.43
2022-09-15T13:28:51.647Z,0.40
2022-09-15T13:31:37.563Z,0.63
2022-09-15T13:40:14.738Z,0.22
2022-09-15T13:43:00.559Z,0.63
2022-09-15T13:45:50.606Z,0.15
2022-09-15T13:48:39.642Z,0.20
2022-09-15T13:51:15.515Z,0.10
2022-09-15T13:53:51.031Z,0.10
2022-09-15T13:56:27.999Z,0.47
2022-09-15T13:59:07.258Z,0.93
2022-09-15T14:01:40.693Z,0.40
2022-09-15T14:04:24.263Z,0.50
2022-09-15T14:06:58.539Z,2.38
2022-09-15T14:09:33.995Z,1.02
2022-09-15T14:12:09.407Z,0.60
2022-09-15T14:14:53.564Z,1.02
2022-09-15T14:17:25.204Z,1.15
2022-09-15T14:19:54.227Z,0.80
2022-09-15T14:22:20.631Z,2.88
2022-09-15T14:24:47.746Z,0.60
2022-09-15T14:27:22.259Z,1.30
2022-09-15T14:29:54.313Z,1.58
2022-09-15T14:32:21.616Z,1.45
2022-09-15T14:37:24.252Z,1.30
2022-09-15T14:39:57.035Z,2.17
2022-09-15T14:42:32.422Z,2.30
2022-09-15T14:48:00.422Z,1.92
2022-09-15T14:50:32.466Z,2.58
2022-09-15T14:53:07.524Z,1.05
2022-09-15T14:55:54.526Z,4.10
2022-09-15T14:58:32.890Z,1.55
2022-09-15T15:01:42.739Z,4.18
2022-09-15T15:04:18.140Z,4.45
2022-09-15T15:07:10.534Z,4.95
2022-09-15T15:09:47.837Z,1.52
2022-09-15T15:12:33.504Z,4.65
2022-09-15T15:15:00.455Z,2.30
2022-09-15T15:17:44.079Z,1.50
2022-09-15T15:20:10.612Z,3.42
2022-09-15T15:22:38.440Z,2.83
2022-09-15T15:25:29.936Z,2.60
2022-09-15T15:28:00.226Z,3.50
2022-09-15T15:30:30.444Z,2.13
2022-09-15T15:32:59.591Z,3.88
2022-09-15T15:35:26.446Z,2.70
2022-09-15T15:38:16.119Z,6.22
2022-09-15T15:40:43.748Z,3.53
2022-09-15T15:43:24.683Z,5.10
2022-09-15T15:46:00.958Z,3.65
2022-09-15T15:48:32.848Z,2.80
2022-09-15T15:51:04.481Z,4.25
2022-09-15T15:53:31.186Z,4.25
2022-09-15T15:55:59.634Z,2.72
2022-09-15T15:58:26.668Z,6.80
2022-09-15T16:00:56.469Z,3.50
2022-09-15T16:03:24.626Z,4.75
2022-09-15T16:05:53.988Z,4.35
2022-09-15T16:08:26.784Z,5.90
2022-09-15T16:10:54.604Z,3.25
2022-09-15T16:13:22.307Z,4.10
2022-09-15T16:15:49.183Z,2.60
2022-09-15T16:18:15.726Z,3.72
2022-09-15T16:20:42.506Z,3.78
2022-09-15T16:23:15.332Z,4.00
2022-09-15T16:25:59.284Z,3.47
2022-09-15T16:28:25.930Z,4.95
2022-09-15T16:30:52.299Z,3.17
2022-09-15T16:33:19.260Z,3.65
2022-09-15T16:35:53.171Z,4.72
2022-09-15T16:38:20.076Z,5.20
2022-09-15T16:40:51.492Z,4.78
2022-09-15T16:43:21.389Z,3.33
2022-09-15T16:45:49.075Z,5.22
2022-09-15T16:48:15.547Z,4.25
2022-09-15T16:51:01.654Z,3.97
2022-09-15T16:53:31.387Z,5.38
2022-09-15T16:55:57.828Z,4.40
2022-09-15T16:58:24.180Z,4.68
2022-09-15T17:00:52.949Z,4.88
2022-09-15T17:03:24.279Z,4.47
2022-09-15T17:05:55.770Z,6.15
2022-09-15T17:08:29.504Z,4.70
2022-09-15T17:10:57.668Z,5.83
2022-09-15T17:13:29.305Z,4.55
2022-09-15T17:15:57.183Z,3.90
2022-09-15T17:18:23.944Z,4.63
2022-09-15T17:20:50.715Z,5.95
2022-09-15T17:23:27.905Z,4.85
2022-09-15T17:26:00.192Z,5.38
2022-09-15T17:28:29.221Z,5.45
2022-09-15T17:31:04.783Z,2.92
2022-09-15T17:33:31.967Z,5.20
2022-09-15T17:35:59.581Z,4.78
2022-09-15T17:38:26.511Z,4.97
2022-09-15T17:40:55.614Z,5.30
2022-09-15T17:43:24.449Z,5.43
2022-09-15T17:45:51.118Z,4.35
2022-09-15T17:48:18.396Z,4.70
2022-09-15T17:50:45.268Z,5.85
2022-09-15T17:53:32.055Z,6.57
2022-09-15T17:55:58.524Z,7.07
2022-09-15T17:58:26.604Z,5.45
2022-09-15T18:00:54.473Z,4.68
2022-09-15T18:03:23.198Z,5.80
2022-09-15T18:05:50.863Z,5.00
2022-09-15T18:08:18.108Z,5.72
2022-09-15T18:10:44.944Z,5.57
2022-09-15T18:13:16.864Z,5.53
2022-09-15T18:15:44.424Z,6.57
2022-09-15T18:18:16.489Z,6.00
2022-09-15T18:20:43.292Z,4.78
2022-09-15T18:23:15.204Z,6.50
2022-09-15T18:25:42.048Z,4.93
2022-09-15T18:28:08.926Z,6.30
2022-09-15T18:30:41.125Z,5.97
2022-09-15T18:33:12.551Z,5.68
2022-09-15T18:35:40.962Z,4.80
2022-09-15T18:38:08.260Z,5.57
2022-09-15T18:40:34.699Z,4.88
2022-09-15T18:43:01.052Z,5.47
2022-09-15T18:45:28.489Z,6.97
2022-09-15T18:47:54.872Z,5.47
2022-09-15T18:50:23.681Z,5.35
2022-09-15T18:52:50.767Z,6.47
2022-09-15T18:55:20.119Z,4.50
2022-09-15T18:57:47.244Z,6.40
2022-09-15T19:00:17.593Z,6.45
2022-09-15T19:02:44.407Z,6.72
2022-09-15T19:05:15.528Z,5.88
2022-09-15T19:07:43.496Z,5.80
2022-09-15T19:10:11.515Z,4.70
2022-09-15T19:12:38.407Z,4.75
2022-09-15T19:15:10.758Z,6.32
2022-09-15T19:17:38.223Z,4.53
2022-09-15T19:20:07.155Z,4.78
2022-09-15T19:22:34.062Z,5.68
2022-09-15T19:25:00.577Z,7.53
2022-09-15T19:27:27.455Z,4.40
2022-09-15T19:29:53.776Z,5.30
2022-09-15T19:32:20.964Z,6.50
2022-09-15T19:34:48.659Z,4.55
2022-09-15T19:37:18.861Z,5.68
2022-09-15T19:39:46.219Z,5.07
2022-09-15T19:42:13.060Z,5.07
2022-09-15T19:44:41.137Z,5.60
2022-09-15T19:47:08.762Z,4.20
2022-09-15T19:49:35.723Z,5.75
2022-09-15T19:52:02.124Z,5.55
2022-09-15T19:54:30.046Z,4.20
2022-09-15T19:56:56.848Z,5.80
2022-09-15T19:59:27.417Z,6.40
2022-09-15T20:01:57.243Z,4.40
2022-09-15T20:04:23.635Z,5.50
2022-09-15T20:06:49.967Z,6.43
2022-09-15T20:09:17.174Z,6.43
2022-09-15T20:11:43.711Z,6.97
2022-09-15T20:14:10.114Z,6.38
2022-09-15T20:16:37.027Z,6.00
2022-09-15T20:19:04.645Z,6.22
2022-09-15T20:21:51.103Z,6.28
2022-09-15T20:24:20.364Z,9.02
2022-09-15T20:26:47.246Z,7.20
2022-09-15T20:29:14.243Z,7.57
2022-09-15T20:31:41.558Z,7.45
2022-09-15T20:34:08.127Z,6.45
2022-09-15T20:36:36.538Z,8.63
2022-09-15T20:39:06.435Z,6.20
2022-09-15T20:41:32.924Z,7.15
2022-09-15T20:44:00.112Z,7.43
2022-09-15T20:46:29.442Z,6.32
2022-09-15T20:48:55.779Z,6.55
2022-09-15T20:51:25.447Z,6.88
2022-09-15T20:53:54.651Z,6.68
2022-09-15T20:56:24.791Z,6.88
2022-09-15T20:58:52.778Z,6.13
2022-09-15T21:01:22.077Z,5.57
2022-09-15T21:03:49.146Z,5.88
2022-09-15T21:06:18.846Z,6.75
2022-09-15T21:08:47.962Z,6.60
2022-09-15T21:11:15.772Z,5.68
2022-09-15T21:13:43.403Z,6.80
2022-09-15T21:16:15.674Z,6.78
2022-09-15T21:18:44.351Z,7.50
2022-09-15T21:21:16.367Z,7.35
2022-09-15T21:23:54.626Z,6.95
2022-09-15T21:26:27.112Z,6.60
2022-09-15T21:28:55.134Z,8.13
2022-09-15T21:31:26.538Z,9.75
2022-09-15T21:33:54.316Z,8.23
2022-09-15T21:36:26.209Z,8.50
2022-09-15T21:38:54.627Z,7.60
2022-09-15T21:41:23.491Z,7.40
2022-09-15T21:43:55.845Z,6.15
2022-09-15T21:46:24.494Z,7.82
2022-09-15T21:48:51.691Z,8.35
2022-09-15T21:51:24.229Z,8.38
2022-09-15T21:53:52.503Z,6.95
2022-09-15T21:56:18.883Z,8.77
2022-09-15T21:58:45.931Z,7.57
2022-09-15T22:01:19.766Z,9.00
2022-09-15T22:03:52.062Z,8.05
2022-09-15T22:06:20.838Z,6.63
2022-09-15T22:08:47.535Z,7.25
2022-09-15T22:11:14.784Z,8.52
2022-09-15T22:13:43.483Z,6.55
2022-09-15T22:16:16.967Z,7.15
2022-09-15T22:18:44.901Z,6.63
2022-09-15T22:21:23.288Z,7.32
2022-09-15T22:23:52.059Z,6.93
2022-09-15T22:26:29.739Z,8.02
2022-09-15T22:28:57.272Z,7.75
2022-09-15T22:31:24.757Z,6.38
2022-09-15T22:33:51.729Z,7.72
2022-09-15T22:36:25.134Z,8.52
2022-09-15T22:38:55.330Z,9.25
2022-09-15T22:41:25.449Z,7.20
2022-09-15T22:43:51.857Z,8.27
2022-09-15T22:46:19.824Z,7.85
2022-09-15T22:48:46.327Z,8.93
2022-09-15T22:51:13.104Z,7.53
2022-09-15T22:53:39.868Z,6.68
2022-09-15T22:56:08.067Z,7.22
2022-09-15T22:58:35.977Z,6.90
2022-09-15T23:01:13.926Z,7.70
2022-09-15T23:03:40.671Z,8.18
2022-09-15T23:06:08.365Z,8.23
2022-09-15T23:08:35.914Z,6.40
2022-09-15T23:11:08.362Z,7.93
2022-09-15T23:13:36.055Z,7.18
2022-09-15T23:16:03.277Z,7.50
2022-09-15T23:18:30.032Z,6.97
2022-09-15T23:21:01.820Z,7.50
2022-09-15T23:23:29.081Z,9.98
2022-09-15T23:25:56.342Z,7.40
2022-09-15T23:28:23.717Z,7.78
2022-09-15T23:30:55.197Z,10.02
2022-09-15T23:33:22.876Z,6.90
2022-09-15T23:35:49.996Z,7.28
2022-09-15T23:38:17.769Z,6.97
2022-09-15T23:40:45.279Z,7.13
2022-09-15T23:43:12.617Z,7.53
2022-09-15T23:45:39.940Z,7.82
2022-09-15T23:48:08.236Z,7.45
2022-09-15T23:50:36.538Z,6.32
2022-09-15T23:53:03.811Z,5.47
2022-09-15T23:55:30.296Z,6.22
2022-09-15T23:57:57.451Z,8.02
